createdAt,value
2019-02-23T00:02:22.033Z,99549.39
2019-02-23T00:04:50.164Z,99546.72
2019-02-23T00:07:18.312Z,99549.98
2019-02-23T00:09:46.466Z,99549.42
2019-02-23T00:12:14.741Z,99552.12
2019-02-23T00:14:42.935Z,99559.66
2019-02-23T00:17:11.229Z,99557.80
2019-02-23T00:19:39.420Z,99560.22
2019-02-23T00:22:07.638Z,99554.28
2019-02-23T00:24:36.918Z,99559.13
2019-02-23T00:27:05.146Z,99562.35
2019-02-23T00:29:33.363Z,99564.48
2019-02-23T00:32:01.541Z,99572.08
2019-02-23T00:34:29.744Z,99565.90
2019-02-23T00:36:57.994Z,99563.20
2019-02-23T00:39:26.212Z,99573.18
2019-02-23T00:41:54.430Z,99575.63
2019-02-23T00:44:22.694Z,99577.23
2019-02-23T00:46:50.843Z,99578.33
2019-02-23T00:49:18.996Z,99576.69
2019-02-23T00:51:47.180Z,99575.06
2019-02-23T00:54:15.366Z,99581.02
2019-02-23T00:56:43.544Z,99579.92
2019-02-23T00:59:11.722Z,99582.37
2019-02-23T01:01:39.870Z,99582.67
2019-02-23T01:04:08.054Z,99584.81
2019-02-23T01:06:36.233Z,99589.14
2019-02-23T01:09:05.029Z,99581.61
2019-02-23T01:11:33.229Z,99591.59
2019-02-23T01:14:01.393Z,99593.19
2019-02-23T01:16:29.604Z,99585.69
2019-02-23T01:18:57.826Z,99588.94
2019-02-23T01:21:26.095Z,99586.75
2019-02-23T01:23:54.312Z,99587.81
2019-02-23T01:26:22.482Z,99593.80
2019-02-23T01:28:50.663Z,99597.03
2019-02-23T01:31:18.832Z,99591.64
2019-02-23T01:33:47.164Z,99593.80
2019-02-23T01:36:15.345Z,99592.19
2019-02-23T01:38:43.554Z,99584.66
2019-02-23T01:41:11.767Z,99583.59
2019-02-23T01:43:39.977Z,99583.84
2019-02-23T01:46:08.533Z,99580.89
2019-02-23T01:48:36.913Z,99581.14
2019-02-23T01:51:05.052Z,99584.15
2019-02-23T01:53:33.270Z,99588.45
2019-02-23T01:56:01.437Z,99587.92
2019-02-23T01:58:29.661Z,99593.31
2019-02-23T02:00:57.925Z,99591.94
2019-02-23T02:03:26.084Z,99594.38
2019-02-23T02:05:54.242Z,99585.21
2019-02-23T02:08:22.631Z,99581.73
2019-02-23T02:10:50.839Z,99579.84
2019-02-23T02:13:20.090Z,99585.49
2019-02-23T02:15:48.547Z,99576.61
2019-02-23T02:18:16.711Z,99577.17
2019-02-23T02:20:44.861Z,99576.09
2019-02-23T02:23:13.057Z,99574.19
2019-02-23T02:25:41.209Z,99581.72
2019-02-23T02:28:09.771Z,99587.70
2019-02-23T02:30:37.941Z,99580.14
2019-02-23T02:33:06.298Z,99577.16
2019-02-23T02:35:34.536Z,99573.67
2019-02-23T02:38:02.740Z,99569.38
2019-02-23T02:40:31.052Z,99577.48
2019-02-23T02:42:59.210Z,99579.63
2019-02-23T02:45:27.359Z,99586.11
2019-02-23T02:47:55.562Z,99582.11
2019-02-23T02:50:24.956Z,99592.05
2019-02-23T02:52:53.149Z,99588.30
2019-02-23T02:57:48.327Z,99596.95
2019-02-23T03:00:16.492Z,99602.58
2019-02-23T03:02:44.707Z,99609.59
2019-02-23T03:05:12.907Z,99618.25
2019-02-23T03:07:41.056Z,99615.83
2019-02-23T03:10:09.278Z,99609.64
2019-02-23T03:12:37.455Z,99612.61
2019-02-23T03:15:06.222Z,99617.47
2019-02-23T03:17:34.406Z,99618.55
2019-02-23T03:20:02.589Z,99614.80
2019-02-23T03:22:30.728Z,99613.70
2019-02-23T03:24:58.998Z,99609.12
2019-02-23T03:27:27.128Z,99601.03
2019-02-23T03:29:55.283Z,99602.64
2019-02-23T03:32:23.480Z,99601.59
2019-02-23T03:34:51.692Z,99607.23
2019-02-23T03:37:19.834Z,99609.67
2019-02-23T03:39:48.065Z,99608.58
2019-02-23T03:42:16.276Z,99604.83
2019-02-23T03:44:44.459Z,99603.21
2019-02-23T03:47:12.769Z,99599.96
2019-02-23T03:49:40.976Z,99596.47
2019-02-23T03:52:09.124Z,99594.02
2019-02-23T03:54:37.413Z,99588.63
2019-02-23T03:57:05.553Z,99578.43
2019-02-23T03:59:33.781Z,99593.23
2019-02-23T04:02:02.280Z,99593.23
2019-02-23T04:04:30.469Z,99604.02
2019-02-23T04:06:58.654Z,99599.99
2019-02-23T04:09:26.900Z,99603.48
2019-02-23T04:11:55.072Z,99599.98
2019-02-23T04:14:23.222Z,99595.15
2019-02-23T04:16:51.403Z,99592.98
2019-02-23T04:19:19.573Z,99586.77
2019-02-23T04:21:47.755Z,99591.64
2019-02-23T04:24:15.978Z,99587.61
2019-02-23T04:26:44.177Z,99580.58
2019-02-23T04:29:12.342Z,99578.96
2019-02-23T04:31:40.512Z,99574.15
2019-02-23T04:34:08.757Z,99577.10
2019-02-23T04:36:36.892Z,99580.31
2019-02-23T04:39:05.773Z,99584.11
2019-02-23T04:41:33.931Z,99584.13
2019-02-23T04:44:02.107Z,99600.30
2019-02-23T04:46:30.287Z,99597.33
2019-02-23T04:48:58.469Z,99594.63
2019-02-23T04:51:26.628Z,99598.13
2019-02-23T04:53:54.890Z,99594.92
2019-02-23T04:56:23.066Z,99596.80
2019-02-23T04:58:51.225Z,99595.75
2019-02-23T05:01:19.408Z,99591.95
2019-02-23T05:03:47.602Z,99583.59
2019-02-23T05:06:15.783Z,99583.61
2019-02-23T05:08:43.948Z,99590.91
2019-02-23T05:11:12.149Z,99586.86
2019-02-23T05:13:40.360Z,99582.25
2019-02-23T05:16:08.742Z,99578.21
2019-02-23T05:18:37.031Z,99587.41
2019-02-23T05:21:05.213Z,99589.02
2019-02-23T05:23:33.613Z,99581.75
2019-02-23T05:26:01.786Z,99582.84
2019-02-23T05:28:30.047Z,99582.56
2019-02-23T05:30:58.223Z,99574.48
2019-02-23T05:33:26.436Z,99567.73
2019-02-23T05:35:54.567Z,99579.58
2019-02-23T05:38:22.742Z,99583.38
2019-02-23T05:40:50.985Z,99573.94
2019-02-23T05:43:19.187Z,99572.59
2019-02-23T05:45:47.350Z,99575.55
2019-02-23T05:48:20.187Z,99585.81
2019-02-23T05:50:48.408Z,99585.27
2019-02-23T05:53:16.581Z,99587.16
2019-02-23T05:55:44.708Z,99596.59
2019-02-23T05:58:12.910Z,99602.25
2019-02-23T06:00:41.169Z,99603.88
2019-02-23T06:03:09.370Z,99607.66
2019-02-23T06:05:37.587Z,99607.39
2019-02-23T06:08:06.236Z,99603.88
2019-02-23T06:10:34.445Z,99613.56
2019-02-23T06:13:02.691Z,99611.16
2019-02-23T06:15:30.886Z,99612.78
2019-02-23T06:17:59.172Z,99617.08
2019-02-23T06:20:27.405Z,99614.11
2019-02-23T06:22:55.583Z,99620.56
2019-02-23T06:25:23.813Z,99625.18
2019-02-23T06:27:52.004Z,99624.62
2019-02-23T06:30:20.189Z,99623.56
2019-02-23T06:32:48.430Z,99619.24
2019-02-23T06:35:16.710Z,99627.07
2019-02-23T06:37:44.921Z,99630.55
2019-02-23T06:40:13.311Z,99632.72
2019-02-23T06:42:41.484Z,99627.87
2019-02-23T06:45:09.815Z,99627.87
2019-02-23T06:47:38.044Z,99628.67
2019-02-23T06:50:06.361Z,99638.11
2019-02-23T06:52:36.656Z,99630.02
2019-02-23T06:55:04.866Z,99620.06
2019-02-23T06:57:33.048Z,99610.89
2019-02-23T07:00:01.573Z,99598.22
2019-02-23T07:02:29.898Z,99594.45
2019-02-23T07:04:58.151Z,99599.84
2019-02-23T07:07:26.402Z,99603.63
2019-02-23T07:09:54.643Z,99611.16
2019-02-23T07:12:22.834Z,99619.79
2019-02-23T07:14:50.973Z,99620.87
2019-02-23T07:17:19.188Z,99633.55
2019-02-23T07:19:47.381Z,99648.10
2019-02-23T07:22:16.046Z,99644.03
2019-02-23T07:24:44.354Z,99631.66
2019-02-23T07:27:12.695Z,99640.29
2019-02-23T07:29:41.204Z,99637.85
2019-02-23T07:32:09.604Z,99642.70
2019-02-23T07:34:37.798Z,99643.52
2019-02-23T07:37:06.024Z,99645.95
2019-02-23T07:39:34.302Z,99657.26
2019-02-23T07:42:02.934Z,99645.41
2019-02-23T07:44:31.051Z,99651.87
2019-02-23T07:46:59.844Z,99642.16
2019-02-23T07:49:28.411Z,99646.77
2019-02-23T07:51:56.786Z,99649.17
2019-02-23T07:54:25.041Z,99642.95
2019-02-23T07:56:53.452Z,99650.78
2019-02-23T07:59:22.029Z,99656.96
2019-02-23T08:01:50.161Z,99661.55
2019-02-23T08:04:18.330Z,99666.68
2019-02-23T08:06:46.587Z,99666.15
2019-02-23T08:09:15.456Z,99668.28
2019-02-23T08:11:43.836Z,99655.38
2019-02-23T08:14:12.312Z,99667.75
2019-02-23T08:16:40.541Z,99667.21
2019-02-23T08:19:08.802Z,99660.22
2019-02-23T08:21:37.370Z,99662.64
2019-02-23T08:24:05.702Z,99654.28
2019-02-23T08:26:34.416Z,99640.82
2019-02-23T08:29:03.051Z,99640.77
2019-02-23T08:31:31.240Z,99655.30
2019-02-23T08:33:59.545Z,99657.98
2019-02-23T08:36:27.800Z,99648.82
2019-02-23T08:38:55.964Z,99637.48
2019-02-23T08:41:25.480Z,99639.09
2019-02-23T08:43:53.787Z,99624.25
2019-02-23T08:46:22.448Z,99631.55
2019-02-23T08:48:51.468Z,99648.02
2019-02-23T08:51:20.095Z,99652.88
2019-02-23T08:53:48.665Z,99653.44
2019-02-23T08:56:17.269Z,99662.62
2019-02-23T08:58:45.592Z,99672.55
2019-02-23T09:01:14.051Z,99677.15
2019-02-23T09:03:42.460Z,99672.58
2019-02-23T09:06:10.720Z,99671.73
2019-02-23T09:08:39.189Z,99674.66
2019-02-23T09:11:07.773Z,99670.64
2019-02-23T09:13:35.980Z,99672.52
2019-02-23T09:16:04.421Z,99672.80
2019-02-23T09:18:32.620Z,99685.45
2019-02-23T09:21:00.790Z,99678.50
2019-02-23T09:23:29.762Z,99667.98
2019-02-23T09:25:57.948Z,99680.92
2019-02-23T09:28:26.350Z,99697.64
2019-02-23T09:30:54.550Z,99699.23
2019-02-23T09:33:22.766Z,99711.09
2019-02-23T09:35:50.994Z,99699.22
2019-02-23T09:38:19.529Z,99685.22
2019-02-23T09:40:48.035Z,99678.22
2019-02-23T09:43:17.827Z,99669.31
2019-02-23T09:45:46.735Z,99661.74
2019-02-23T09:48:15.095Z,99668.53
2019-02-23T09:50:43.275Z,99664.73
2019-02-23T09:53:11.720Z,99673.11
2019-02-23T09:55:39.878Z,99673.36
2019-02-23T09:58:08.028Z,99668.75
2019-02-23T10:00:36.358Z,99661.48
2019-02-23T10:03:07.464Z,99665.00
2019-02-23T10:05:38.055Z,99665.00
2019-02-23T10:08:05.674Z,99664.98
2019-02-23T10:10:33.868Z,99674.42
2019-02-23T10:13:02.209Z,99676.03
2019-02-23T10:15:30.364Z,99659.08
2019-02-23T10:17:58.521Z,99670.38
2019-02-23T10:20:26.695Z,99687.63
2019-02-23T10:22:55.968Z,99682.78
2019-02-23T10:25:24.162Z,99678.44
2019-02-23T10:27:52.352Z,99690.30
2019-02-23T10:30:20.586Z,99698.95
2019-02-23T10:32:48.775Z,99697.05
2019-02-23T10:35:20.095Z,99702.17
2019-02-23T10:37:48.326Z,99695.14
2019-02-23T10:40:16.477Z,99692.72
2019-02-23T10:42:44.639Z,99697.31
2019-02-23T10:45:12.897Z,99604.97
2019-02-23T10:50:08.393Z,99691.34
2019-02-23T10:52:36.814Z,99671.92
2019-02-23T10:57:31.904Z,99660.03
2019-02-23T11:00:00.054Z,99656.80
2019-02-23T11:02:28.197Z,99636.82
2019-02-23T11:04:56.332Z,99639.00
2019-02-23T11:07:24.472Z,99630.95
2019-02-23T11:09:52.613Z,99633.34
2019-02-23T11:12:20.756Z,99627.95
2019-02-23T11:14:48.881Z,99625.21
2019-02-23T11:17:17.032Z,99619.58
2019-02-23T11:19:45.174Z,99619.06
2019-02-23T11:22:13.328Z,99618.55
2019-02-23T11:24:41.459Z,99615.03
2019-02-23T11:27:09.720Z,99619.65
2019-02-23T11:29:37.878Z,99617.76
2019-02-23T11:32:06.112Z,99583.88
2019-02-23T11:34:34.274Z,99605.66
2019-02-23T11:37:02.432Z,99616.98
2019-02-23T11:39:30.577Z,99619.42
2019-02-23T11:41:58.713Z,99618.88
2019-02-23T11:44:26.949Z,99626.16
2019-02-23T11:47:02.025Z,99620.20
2019-02-23T11:49:24.934Z,99620.78
2019-02-23T11:51:53.148Z,99618.88
2019-02-23T11:54:21.367Z,99630.45
2019-02-23T11:56:49.959Z,99619.11
2019-02-23T11:59:18.059Z,99635.28
2019-02-23T12:01:46.189Z,99629.83
2019-02-23T12:04:14.334Z,99626.34
2019-02-23T12:09:09.440Z,99623.86
2019-02-23T12:11:37.582Z,99607.78
2019-02-23T12:14:05.725Z,99609.38
2019-02-23T12:16:33.858Z,99602.94
2019-02-23T12:19:02.001Z,99595.63
2019-02-23T12:21:30.658Z,99584.34
2019-02-23T12:24:05.922Z,99581.63
2019-02-23T12:26:29.194Z,99577.03
2019-02-23T12:28:57.758Z,99576.20
2019-02-23T12:31:26.192Z,99568.16
2019-02-23T12:33:54.385Z,99564.41
2019-02-23T12:36:22.544Z,99557.13
2019-02-23T12:38:50.737Z,99560.89
2019-02-23T12:41:18.891Z,99555.77
2019-02-23T12:43:47.045Z,99558.47
2019-02-23T12:46:15.196Z,99549.80
2019-02-23T12:48:43.391Z,99541.06
2019-02-23T12:51:11.595Z,99539.50
2019-02-23T12:53:39.784Z,99546.29
2019-02-23T12:56:08.008Z,99539.30
2019-02-23T12:58:36.348Z,99539.82
2019-02-23T13:01:04.802Z,99546.03
2019-02-23T13:03:33.026Z,99546.84
2019-02-23T13:06:01.270Z,99547.94
2019-02-23T13:08:48.547Z,99546.52
2019-02-23T13:11:16.709Z,99536.56
2019-02-23T13:14:02.464Z,99531.18
2019-02-23T13:16:43.448Z,99527.41
2019-02-23T13:19:30.292Z,99530.09
2019-02-23T13:22:20.607Z,99526.88
2019-02-23T13:25:26.386Z,99533.30
2019-02-23T13:28:25.715Z,99524.69
2019-02-23T13:31:15.672Z,99524.13
2019-02-23T13:33:55.192Z,99520.06
2019-02-23T13:36:32.932Z,99526.25
2019-02-23T13:39:05.841Z,99522.20
2019-02-23T13:41:52.304Z,99523.58
2019-02-23T13:44:55.050Z,99520.34
2019-02-23T13:47:47.922Z,99514.65
2019-02-23T13:50:19.163Z,99509.25
2019-02-23T13:52:52.365Z,99504.11
2019-02-23T13:55:26.934Z,99499.78
2019-02-23T13:57:56.950Z,99496.53
2019-02-23T14:00:43.169Z,99489.50
2019-02-23T14:03:30.470Z,99488.97
2019-02-23T14:06:16.376Z,99489.22
2019-02-23T14:09:02.268Z,99478.77
2019-02-23T14:11:50.510Z,99475.56
2019-02-23T14:14:31.998Z,99479.58
2019-02-23T14:17:08.869Z,99473.67
2019-02-23T14:20:02.058Z,99472.30
2019-02-23T14:22:49.413Z,99464.20
2019-02-23T14:25:39.839Z,99465.84
2019-02-23T14:28:39.561Z,99465.33
2019-02-23T14:31:29.358Z,99456.17
2019-02-23T14:34:16.777Z,99451.05
2019-02-23T14:36:50.056Z,99454.82
2019-02-23T14:39:41.066Z,99463.24
2019-02-23T14:42:12.350Z,99456.22
2019-02-23T14:44:58.223Z,99452.97
2019-02-23T14:47:54.680Z,99451.08
2019-02-23T14:50:48.108Z,99450.77
2019-02-23T14:53:32.672Z,99451.36
2019-02-23T14:56:19.881Z,99455.16
2019-02-23T14:59:07.138Z,99451.61
2019-02-23T15:01:54.390Z,99449.94
2019-02-23T15:04:41.696Z,99447.99
2019-02-23T15:07:29.600Z,99459.31
2019-02-23T15:10:16.829Z,99452.58
2019-02-23T15:13:04.122Z,99451.22
2019-02-23T15:15:51.390Z,99454.82
2019-02-23T15:18:38.605Z,99454.11
2019-02-23T15:21:10.705Z,99441.41
2019-02-23T15:23:57.947Z,99450.04
2019-02-23T15:26:45.207Z,99445.98
2019-02-23T15:29:32.499Z,99445.70
2019-02-23T15:32:19.726Z,99429.86
2019-02-23T15:35:06.986Z,99442.50
2019-02-23T15:37:54.255Z,99441.97
2019-02-23T15:40:41.668Z,99431.44
2019-02-23T15:43:28.928Z,99431.20
2019-02-23T15:46:16.320Z,99429.34
2019-02-23T15:49:03.573Z,99438.78
2019-02-23T15:51:31.729Z,99434.74
2019-02-23T15:53:59.868Z,99438.23
2019-02-23T15:56:28.011Z,99440.94
2019-02-23T15:58:56.146Z,99443.39
2019-02-23T16:01:24.290Z,99442.03
2019-02-23T16:04:11.555Z,99438.02
2019-02-23T16:06:39.691Z,99429.41
2019-02-23T16:09:07.841Z,99435.55
2019-02-23T16:11:36.006Z,99427.23
2019-02-23T16:16:38.161Z,99424.30
2019-02-23T16:19:06.295Z,99426.18
2019-02-23T16:21:34.437Z,99430.50
2019-02-23T16:24:02.572Z,99429.44
2019-02-23T16:26:30.748Z,99438.08
2019-02-23T16:28:58.887Z,99451.00
2019-02-23T16:31:27.021Z,99457.16
2019-02-23T16:33:55.218Z,99462.30
2019-02-23T16:36:23.355Z,99468.58
2019-02-23T16:38:51.571Z,99475.33
2019-02-23T16:41:19.756Z,99484.49
2019-02-23T16:43:47.900Z,99492.05
2019-02-23T16:46:16.044Z,99491.50
2019-02-23T16:48:44.189Z,99496.62
2019-02-23T16:51:12.357Z,99497.97
2019-02-23T16:53:40.498Z,99500.16
2019-02-23T16:56:27.762Z,99507.67
2019-02-23T16:58:55.907Z,99508.49
2019-02-23T17:01:24.041Z,99512.00
2019-02-23T17:03:52.270Z,99509.84
2019-02-23T17:06:20.476Z,99511.73
2019-02-23T17:08:48.851Z,99517.95
2019-02-23T17:11:17.280Z,99521.42
2019-02-23T17:13:46.181Z,99511.20
2019-02-23T17:16:15.014Z,99505.01
2019-02-23T17:19:02.190Z,99515.78
2019-02-23T17:21:49.479Z,99515.52
2019-02-23T17:24:18.139Z,99514.44
2019-02-23T17:26:46.808Z,99517.94
2019-02-23T17:29:14.920Z,99512.27
2019-02-23T17:31:43.141Z,99512.52
2019-02-23T17:34:11.395Z,99514.67
2019-02-23T17:36:39.582Z,99511.47
2019-02-23T17:44:16.082Z,99517.95
2019-02-23T17:46:44.256Z,99529.24
2019-02-23T17:49:12.436Z,99525.22
2019-02-23T17:51:40.641Z,99530.06
2019-02-23T17:54:08.843Z,99528.19
2019-02-23T17:56:56.091Z,99526.02
2019-02-23T17:59:24.228Z,99526.82
2019-02-23T18:01:52.399Z,99524.40
2019-02-23T18:04:20.556Z,99525.22
2019-02-23T18:06:48.693Z,99532.21
2019-02-23T18:09:16.859Z,99536.55
2019-02-23T18:11:45.011Z,99539.52
2019-02-23T18:14:13.160Z,99541.94
2019-02-23T18:16:41.300Z,99536.02
2019-02-23T18:19:09.517Z,99531.44
2019-02-23T18:21:37.673Z,99543.03
2019-02-23T18:24:05.808Z,99535.75
2019-02-23T18:26:33.982Z,99528.21
2019-02-23T18:29:02.135Z,99525.79
2019-02-23T18:31:30.262Z,99526.61
2019-02-23T18:33:58.425Z,99526.32
2019-02-23T18:36:26.574Z,99518.78
2019-02-23T18:38:54.732Z,99519.86
2019-02-23T18:41:22.877Z,99517.70
2019-02-23T18:43:51.017Z,99530.36
2019-02-23T18:46:19.143Z,99523.09
2019-02-23T18:49:06.224Z,99525.52
2019-02-23T18:54:21.529Z,99531.19
2019-02-23T18:56:49.659Z,99536.86
2019-02-23T18:59:17.822Z,99527.66
2019-02-23T19:01:45.949Z,99532.00
2019-02-23T19:04:14.273Z,99537.39
2019-02-23T19:06:42.402Z,99533.34
2019-02-23T19:09:10.544Z,99536.05
2019-02-23T19:11:38.702Z,99537.42
2019-02-23T19:14:06.849Z,99532.03
2019-02-23T19:16:34.987Z,99530.69
2019-02-23T19:19:03.162Z,99532.80
2019-02-23T19:21:31.309Z,99530.69
2019-02-23T19:23:59.645Z,99528.77
2019-02-23T19:26:27.784Z,99524.48
2019-02-23T19:28:55.927Z,99527.45
2019-02-23T19:31:24.113Z,99525.01
2019-02-23T19:33:52.282Z,99522.33
2019-02-23T19:36:39.342Z,99525.55
2019-02-23T19:39:07.477Z,99520.44
2019-02-23T19:41:35.654Z,99522.06
2019-02-23T19:44:04.041Z,99516.95
2019-02-23T19:46:32.238Z,99514.25
2019-02-23T19:49:01.898Z,99516.13
2019-02-23T19:51:30.171Z,99518.56
2019-02-23T19:53:58.388Z,99517.75
2019-02-23T19:56:26.642Z,99516.95
2019-02-23T19:58:54.875Z,99522.89
2019-02-23T20:01:23.051Z,99527.19
2019-02-23T20:06:38.483Z,99522.89
2019-02-23T20:09:06.612Z,99530.42
2019-02-23T20:11:53.805Z,99532.59
2019-02-23T20:14:22.198Z,99535.28
2019-02-23T20:16:50.789Z,99530.41
2019-02-23T20:19:19.799Z,99533.36
2019-02-23T20:22:08.246Z,99540.11
2019-02-23T20:29:59.822Z,99550.08
2019-02-23T20:32:28.188Z,99553.83
2019-02-23T20:34:56.627Z,99554.92
2019-02-23T20:37:44.036Z,99549.00
2019-02-23T20:40:12.429Z,99550.87
2019-02-23T20:42:40.877Z,99550.89
2019-02-23T20:48:15.974Z,99550.89
2019-02-23T20:50:44.240Z,99553.30
2019-02-23T20:53:12.414Z,99556.00
2019-02-23T20:55:40.960Z,99550.09
2019-02-23T20:58:09.168Z,99561.14
2019-02-23T21:00:37.307Z,99553.84
2019-02-23T21:03:05.559Z,99558.98
2019-02-23T21:05:33.777Z,99558.42
2019-02-23T21:08:01.962Z,99553.31
2019-02-23T21:10:30.112Z,99555.20
2019-02-23T21:12:58.303Z,99549.55
2019-02-23T21:15:26.471Z,99543.89
2019-02-23T21:17:54.839Z,99543.36
2019-02-23T21:20:22.980Z,99549.27
2019-02-23T21:22:51.153Z,99543.91
2019-02-23T21:25:19.375Z,99544.43
2019-02-23T21:27:47.585Z,99539.86
2019-02-23T21:30:15.784Z,99543.36
2019-02-23T21:32:44.003Z,99542.55
2019-02-23T21:35:12.174Z,99540.42
2019-02-23T21:37:40.451Z,99545.53
2019-02-23T21:40:08.737Z,99545.78
2019-02-23T21:42:36.952Z,99543.65
2019-02-23T21:45:05.348Z,99544.16
2019-02-23T21:47:33.565Z,99548.77
2019-02-23T21:50:01.802Z,99551.45
2019-02-23T21:52:29.974Z,99556.02
2019-02-23T21:54:58.137Z,99550.36
2019-02-23T21:57:28.616Z,99547.67
2019-02-23T21:59:56.838Z,99544.98
2019-02-23T22:02:24.996Z,99548.48
2019-02-23T22:04:53.195Z,99548.75
2019-02-23T22:07:21.359Z,99547.42
2019-02-23T22:09:49.580Z,99548.77
2019-02-23T22:12:17.714Z,99549.84
2019-02-23T22:14:45.994Z,99543.92
2019-02-23T22:17:14.211Z,99551.72
2019-02-23T22:19:42.391Z,99550.09
2019-02-23T22:22:10.560Z,99551.44
2019-02-23T22:24:38.766Z,99551.70
2019-02-23T22:27:06.920Z,99542.58
2019-02-23T22:29:35.207Z,99541.51
2019-02-23T22:32:03.445Z,99542.30
2019-02-23T22:34:31.691Z,99542.56
2019-02-23T22:36:59.838Z,99534.48
2019-02-23T22:39:27.964Z,99542.30
2019-02-23T22:41:56.158Z,99540.97
2019-02-23T22:44:24.329Z,99539.06
2019-02-23T22:46:52.518Z,99542.83
2019-02-23T22:49:20.769Z,99545.80
2019-02-23T22:51:48.932Z,99541.77
2019-02-23T22:54:17.138Z,99542.57
2019-02-23T22:56:45.351Z,99535.03
2019-02-23T22:59:13.562Z,99537.47
2019-02-23T23:01:41.822Z,99544.20
2019-02-23T23:04:10.009Z,99539.87
2019-02-23T23:06:40.977Z,99540.70
2019-02-23T23:09:14.270Z,99538.80
2019-02-23T23:11:42.419Z,99537.45
2019-02-23T23:14:10.616Z,99535.02
2019-02-23T23:16:38.824Z,99534.50
2019-02-23T23:19:07.035Z,99526.15
2019-02-23T23:21:35.196Z,99534.50
2019-02-23T23:24:03.385Z,99526.41
2019-02-23T23:26:31.599Z,99526.68
2019-02-23T23:28:59.795Z,99525.60
2019-02-23T23:31:28.107Z,99525.08
2019-02-23T23:33:56.356Z,99518.61
2019-02-23T23:36:24.620Z,99519.70
2019-02-23T23:38:52.768Z,99519.97
2019-02-23T23:41:20.943Z,99511.36
2019-02-23T23:43:49.161Z,99513.25
2019-02-23T23:46:17.411Z,99515.11
2019-02-23T23:48:45.568Z,99506.52
2019-02-23T23:51:13.756Z,99501.94
2019-02-23T23:53:41.964Z,99505.42
2019-02-23T23:56:10.103Z,99497.64
2019-02-23T23:58:38.308Z,99497.34
